sensor_id;sensor_type;location;lat;lon;timestamp;P1;durP1;ratioP1;P2;durP2;ratioP2
12625;SDS011;6378;42.684;23.372;2024-01-30T00:01:19;8.27;;;5.37;;
12625;SDS011;6378;42.684;23.372;2024-01-30T00:03:45;9.70;;;6.07;;
12625;SDS011;6378;42.684;23.372;2024-01-30T00:06:11;6.27;;;4.57;;
12625;SDS011;6378;42.684;23.372;2024-01-30T00:08:37;9.93;;;6.13;;
12625;SDS011;6378;42.684;23.372;2024-01-30T00:11:02;8.00;;;5.50;;
12625;SDS011;6378;42.684;23.372;2024-01-30T00:13:28;9.47;;;5.97;;
12625;SDS011;6378;42.684;23.372;2024-01-30T00:15:53;10.57;;;6.00;;
12625;SDS011;6378;42.684;23.372;2024-01-30T00:18:19;9.33;;;5.90;;
12625;SDS011;6378;42.684;23.372;2024-01-30T00:20:45;10.90;;;6.30;;
12625;SDS011;6378;42.684;23.372;2024-01-30T00:23:10;8.20;;;6.07;;
12625;SDS011;6378;42.684;23.372;2024-01-30T00:25:36;10.23;;;5.97;;
12625;SDS011;6378;42.684;23.372;2024-01-30T00:28:02;10.03;;;6.10;;
12625;SDS011;6378;42.684;23.372;2024-01-30T00:30:27;11.77;;;6.13;;
12625;SDS011;6378;42.684;23.372;2024-01-30T00:32:53;9.47;;;6.70;;
12625;SDS011;6378;42.684;23.372;2024-01-30T00:35:19;9.43;;;6.17;;
12625;SDS011;6378;42.684;23.372;2024-01-30T00:37:45;10.10;;;6.80;;
12625;SDS011;6378;42.684;23.372;2024-01-30T00:40:10;11.17;;;7.03;;
12625;SDS011;6378;42.684;23.372;2024-01-30T00:42:41;12.40;;;7.67;;
12625;SDS011;6378;42.684;23.372;2024-01-30T00:45:11;11.27;;;7.07;;
12625;SDS011;6378;42.684;23.372;2024-01-30T00:47:40;11.73;;;6.23;;
12625;SDS011;6378;42.684;23.372;2024-01-30T00:50:06;11.43;;;6.77;;
12625;SDS011;6378;42.684;23.372;2024-01-30T00:52:32;9.87;;;7.07;;
12625;SDS011;6378;42.684;23.372;2024-01-30T00:54:58;11.77;;;7.30;;
12625;SDS011;6378;42.684;23.372;2024-01-30T00:57:24;9.10;;;6.63;;
12625;SDS011;6378;42.684;23.372;2024-01-30T00:59:49;12.70;;;7.00;;
12625;SDS011;6378;42.684;23.372;2024-01-30T01:02:15;11.27;;;6.27;;
12625;SDS011;6378;42.684;23.372;2024-01-30T01:04:42;9.87;;;6.07;;
12625;SDS011;6378;42.684;23.372;2024-01-30T01:07:09;10.80;;;6.93;;
12625;SDS011;6378;42.684;23.372;2024-01-30T01:09:35;10.17;;;6.30;;
12625;SDS011;6378;42.684;23.372;2024-01-30T01:12:01;9.73;;;7.03;;
12625;SDS011;6378;42.684;23.372;2024-01-30T01:14:27;12.07;;;7.00;;
12625;SDS011;6378;42.684;23.372;2024-01-30T01:16:52;11.00;;;6.70;;
12625;SDS011;6378;42.684;23.372;2024-01-30T01:19:18;9.57;;;6.33;;
12625;SDS011;6378;42.684;23.372;2024-01-30T01:21:43;9.10;;;5.97;;
12625;SDS011;6378;42.684;23.372;2024-01-30T01:24:09;10.37;;;6.70;;
12625;SDS011;6378;42.684;23.372;2024-01-30T01:26:34;11.10;;;6.67;;
12625;SDS011;6378;42.684;23.372;2024-01-30T01:29:00;10.43;;;7.10;;
12625;SDS011;6378;42.684;23.372;2024-01-30T01:31:25;9.07;;;6.60;;
12625;SDS011;6378;42.684;23.372;2024-01-30T01:33:54;9.33;;;6.17;;
12625;SDS011;6378;42.684;23.372;2024-01-30T01:36:20;8.83;;;5.87;;
12625;SDS011;6378;42.684;23.372;2024-01-30T01:38:46;9.93;;;5.93;;
12625;SDS011;6378;42.684;23.372;2024-01-30T01:41:11;10.57;;;6.97;;
12625;SDS011;6378;42.684;23.372;2024-01-30T01:43:37;9.63;;;6.10;;
12625;SDS011;6378;42.684;23.372;2024-01-30T01:46:04;8.40;;;5.43;;
12625;SDS011;6378;42.684;23.372;2024-01-30T01:48:30;7.47;;;5.03;;
12625;SDS011;6378;42.684;23.372;2024-01-30T01:50:57;8.87;;;5.60;;
12625;SDS011;6378;42.684;23.372;2024-01-30T01:53:23;9.20;;;5.80;;
12625;SDS011;6378;42.684;23.372;2024-01-30T01:55:48;8.20;;;5.30;;
12625;SDS011;6378;42.684;23.372;2024-01-30T01:58:14;8.50;;;5.60;;
12625;SDS011;6378;42.684;23.372;2024-01-30T02:00:40;7.37;;;5.17;;
12625;SDS011;6378;42.684;23.372;2024-01-30T02:03:08;8.50;;;5.53;;
12625;SDS011;6378;42.684;23.372;2024-01-30T02:05:35;9.87;;;5.97;;
12625;SDS011;6378;42.684;23.372;2024-01-30T02:08:02;9.03;;;5.93;;
12625;SDS011;6378;42.684;23.372;2024-01-30T02:10:28;7.47;;;5.23;;
12625;SDS011;6378;42.684;23.372;2024-01-30T02:12:54;8.53;;;5.37;;
12625;SDS011;6378;42.684;23.372;2024-01-30T02:15:19;9.77;;;5.83;;
12625;SDS011;6378;42.684;23.372;2024-01-30T02:17:45;8.47;;;5.07;;
12625;SDS011;6378;42.684;23.372;2024-01-30T02:20:10;8.40;;;5.37;;
12625;SDS011;6378;42.684;23.372;2024-01-30T02:22:36;6.23;;;5.17;;
12625;SDS011;6378;42.684;23.372;2024-01-30T02:25:02;8.40;;;5.57;;
12625;SDS011;6378;42.684;23.372;2024-01-30T02:27:28;9.47;;;6.40;;
12625;SDS011;6378;42.684;23.372;2024-01-30T02:29:53;11.17;;;6.77;;
12625;SDS011;6378;42.684;23.372;2024-01-30T02:32:19;9.33;;;6.50;;
12625;SDS011;6378;42.684;23.372;2024-01-30T02:34:44;9.87;;;6.60;;
12625;SDS011;6378;42.684;23.372;2024-01-30T02:37:10;9.87;;;5.87;;
12625;SDS011;6378;42.684;23.372;2024-01-30T02:39:35;8.97;;;6.23;;
12625;SDS011;6378;42.684;23.372;2024-01-30T02:42:01;8.97;;;6.00;;
12625;SDS011;6378;42.684;23.372;2024-01-30T02:44:26;10.87;;;6.50;;
12625;SDS011;6378;42.684;23.372;2024-01-30T02:46:52;7.93;;;5.20;;
12625;SDS011;6378;42.684;23.372;2024-01-30T02:49:19;8.73;;;5.67;;
12625;SDS011;6378;42.684;23.372;2024-01-30T02:51:44;10.50;;;6.60;;
12625;SDS011;6378;42.684;23.372;2024-01-30T02:54:10;7.20;;;4.50;;
12625;SDS011;6378;42.684;23.372;2024-01-30T02:56:35;8.63;;;6.00;;
12625;SDS011;6378;42.684;23.372;2024-01-30T02:59:01;7.87;;;5.17;;
12625;SDS011;6378;42.684;23.372;2024-01-30T03:01:26;7.23;;;5.10;;
12625;SDS011;6378;42.684;23.372;2024-01-30T03:03:52;8.57;;;5.73;;
12625;SDS011;6378;42.684;23.372;2024-01-30T03:06:17;7.13;;;5.30;;
12625;SDS011;6378;42.684;23.372;2024-01-30T03:08:45;8.77;;;6.17;;
12625;SDS011;6378;42.684;23.372;2024-01-30T03:11:10;9.37;;;5.50;;
12625;SDS011;6378;42.684;23.372;2024-01-30T03:13:36;9.80;;;6.40;;
12625;SDS011;6378;42.684;23.372;2024-01-30T03:16:01;7.30;;;5.80;;
12625;SDS011;6378;42.684;23.372;2024-01-30T03:18:27;10.40;;;6.23;;
12625;SDS011;6378;42.684;23.372;2024-01-30T03:20:53;10.30;;;6.20;;
12625;SDS011;6378;42.684;23.372;2024-01-30T03:23:18;9.33;;;5.87;;
12625;SDS011;6378;42.684;23.372;2024-01-30T03:25:44;11.00;;;5.53;;
12625;SDS011;6378;42.684;23.372;2024-01-30T03:28:09;10.23;;;5.60;;
12625;SDS011;6378;42.684;23.372;2024-01-30T03:30:35;8.60;;;5.83;;
12625;SDS011;6378;42.684;23.372;2024-01-30T03:33:00;9.37;;;5.80;;
12625;SDS011;6378;42.684;23.372;2024-01-30T03:35:26;9.67;;;6.33;;
12625;SDS011;6378;42.684;23.372;2024-01-30T03:37:51;10.67;;;6.00;;
12625;SDS011;6378;42.684;23.372;2024-01-30T03:40:17;8.20;;;5.93;;
12625;SDS011;6378;42.684;23.372;2024-01-30T03:42:42;8.00;;;5.73;;
12625;SDS011;6378;42.684;23.372;2024-01-30T03:45:08;8.23;;;5.37;;
12625;SDS011;6378;42.684;23.372;2024-01-30T03:47:34;9.23;;;5.93;;
12625;SDS011;6378;42.684;23.372;2024-01-30T03:49:59;9.07;;;5.70;;
12625;SDS011;6378;42.684;23.372;2024-01-30T03:52:25;10.63;;;6.63;;
12625;SDS011;6378;42.684;23.372;2024-01-30T03:54:50;8.50;;;5.83;;
12625;SDS011;6378;42.684;23.372;2024-01-30T03:57:15;8.00;;;5.40;;
12625;SDS011;6378;42.684;23.372;2024-01-30T03:59:44;8.63;;;5.47;;
12625;SDS011;6378;42.684;23.372;2024-01-30T04:02:10;7.23;;;4.90;;
12625;SDS011;6378;42.684;23.372;2024-01-30T04:04:36;10.37;;;5.37;;
12625;SDS011;6378;42.684;23.372;2024-01-30T04:07:02;6.20;;;4.93;;
12625;SDS011;6378;42.684;23.372;2024-01-30T04:09:27;7.70;;;4.67;;
12625;SDS011;6378;42.684;23.372;2024-01-30T04:11:53;7.57;;;4.93;;
12625;SDS011;6378;42.684;23.372;2024-01-30T04:14:19;7.13;;;4.87;;
12625;SDS011;6378;42.684;23.372;2024-01-30T04:16:44;8.50;;;4.93;;
12625;SDS011;6378;42.684;23.372;2024-01-30T04:19:10;6.63;;;4.40;;
12625;SDS011;6378;42.684;23.372;2024-01-30T04:21:35;8.87;;;5.13;;
12625;SDS011;6378;42.684;23.372;2024-01-30T04:24:01;8.07;;;4.93;;
12625;SDS011;6378;42.684;23.372;2024-01-30T04:26:27;12.33;;;6.33;;
12625;SDS011;6378;42.684;23.372;2024-01-30T04:28:52;8.50;;;5.17;;
12625;SDS011;6378;42.684;23.372;2024-01-30T04:31:18;8.30;;;5.70;;
12625;SDS011;6378;42.684;23.372;2024-01-30T04:33:43;6.93;;;5.57;;
12625;SDS011;6378;42.684;23.372;2024-01-30T04:36:09;7.93;;;5.07;;
12625;SDS011;6378;42.684;23.372;2024-01-30T04:38:38;8.47;;;6.17;;
12625;SDS011;6378;42.684;23.372;2024-01-30T04:41:04;9.87;;;6.57;;
12625;SDS011;6378;42.684;23.372;2024-01-30T04:43:29;7.40;;;5.17;;
12625;SDS011;6378;42.684;23.372;2024-01-30T04:45:55;8.13;;;5.40;;
12625;SDS011;6378;42.684;23.372;2024-01-30T04:48:21;11.37;;;6.10;;
12625;SDS011;6378;42.684;23.372;2024-01-30T04:50:46;9.13;;;5.33;;
12625;SDS011;6378;42.684;23.372;2024-01-30T04:53:12;10.47;;;5.33;;
12625;SDS011;6378;42.684;23.372;2024-01-30T04:55:37;8.67;;;5.73;;
12625;SDS011;6378;42.684;23.372;2024-01-30T04:58:03;8.50;;;5.30;;
12625;SDS011;6378;42.684;23.372;2024-01-30T05:00:29;7.03;;;4.10;;
12625;SDS011;6378;42.684;23.372;2024-01-30T05:02:55;7.97;;;4.90;;
12625;SDS011;6378;42.684;23.372;2024-01-30T05:05:21;6.83;;;4.67;;
12625;SDS011;6378;42.684;23.372;2024-01-30T05:07:46;7.00;;;5.07;;
12625;SDS011;6378;42.684;23.372;2024-01-30T05:10:12;7.67;;;5.10;;
12625;SDS011;6378;42.684;23.372;2024-01-30T05:12:38;10.67;;;5.23;;
12625;SDS011;6378;42.684;23.372;2024-01-30T05:15:04;8.97;;;5.60;;
12625;SDS011;6378;42.684;23.372;2024-01-30T05:17:30;8.30;;;5.60;;
12625;SDS011;6378;42.684;23.372;2024-01-30T05:19:55;9.73;;;6.40;;
12625;SDS011;6378;42.684;23.372;2024-01-30T05:22:21;8.70;;;6.10;;
12625;SDS011;6378;42.684;23.372;2024-01-30T05:24:46;8.87;;;5.80;;
12625;SDS011;6378;42.684;23.372;2024-01-30T05:27:12;9.00;;;6.07;;
12625;SDS011;6378;42.684;23.372;2024-01-30T05:29:38;9.33;;;6.57;;
12625;SDS011;6378;42.684;23.372;2024-01-30T05:32:05;8.27;;;5.83;;
12625;SDS011;6378;42.684;23.372;2024-01-30T05:34:31;9.03;;;5.87;;
12625;SDS011;6378;42.684;23.372;2024-01-30T05:36:56;8.63;;;5.77;;
12625;SDS011;6378;42.684;23.372;2024-01-30T05:39:22;8.23;;;5.20;;
12625;SDS011;6378;42.684;23.372;2024-01-30T05:41:47;7.27;;;5.20;;
12625;SDS011;6378;42.684;23.372;2024-01-30T05:44:13;10.33;;;6.07;;
12625;SDS011;6378;42.684;23.372;2024-01-30T05:46:38;9.73;;;6.20;;
12625;SDS011;6378;42.684;23.372;2024-01-30T05:49:04;8.60;;;5.67;;
12625;SDS011;6378;42.684;23.372;2024-01-30T05:51:29;9.17;;;5.70;;
12625;SDS011;6378;42.684;23.372;2024-01-30T05:53:55;9.57;;;6.30;;
12625;SDS011;6378;42.684;23.372;2024-01-30T05:56:20;11.07;;;6.10;;
12625;SDS011;6378;42.684;23.372;2024-01-30T05:58:46;12.50;;;8.53;;
12625;SDS011;6378;42.684;23.372;2024-01-30T06:01:11;10.77;;;8.53;;
12625;SDS011;6378;42.684;23.372;2024-01-30T06:03:37;12.53;;;8.50;;
12625;SDS011;6378;42.684;23.372;2024-01-30T06:06:03;13.97;;;8.53;;
12625;SDS011;6378;42.684;23.372;2024-01-30T06:08:29;14.67;;;8.43;;
12625;SDS011;6378;42.684;23.372;2024-01-30T06:10:55;18.03;;;9.63;;
12625;SDS011;6378;42.684;23.372;2024-01-30T06:13:20;15.80;;;8.97;;
12625;SDS011;6378;42.684;23.372;2024-01-30T06:15:46;20.63;;;10.67;;
12625;SDS011;6378;42.684;23.372;2024-01-30T06:18:11;15.50;;;8.60;;
12625;SDS011;6378;42.684;23.372;2024-01-30T06:20:37;15.07;;;8.97;;
12625;SDS011;6378;42.684;23.372;2024-01-30T06:23:02;16.37;;;9.60;;
12625;SDS011;6378;42.684;23.372;2024-01-30T06:25:28;15.13;;;10.53;;
12625;SDS011;6378;42.684;23.372;2024-01-30T06:27:54;15.53;;;10.07;;
12625;SDS011;6378;42.684;23.372;2024-01-30T06:30:19;21.17;;;11.83;;
12625;SDS011;6378;42.684;23.372;2024-01-30T06:32:45;24.73;;;12.03;;
12625;SDS011;6378;42.684;23.372;2024-01-30T06:35:10;20.93;;;12.73;;
12625;SDS011;6378;42.684;23.372;2024-01-30T06:37:36;14.77;;;11.40;;
12625;SDS011;6378;42.684;23.372;2024-01-30T06:40:02;16.27;;;11.10;;
12625;SDS011;6378;42.684;23.372;2024-01-30T06:42:29;21.70;;;12.07;;
12625;SDS011;6378;42.684;23.372;2024-01-30T06:44:55;21.70;;;9.83;;
12625;SDS011;6378;42.684;23.372;2024-01-30T06:47:21;10.27;;;6.83;;
12625;SDS011;6378;42.684;23.372;2024-01-30T06:49:46;7.60;;;6.07;;
12625;SDS011;6378;42.684;23.372;2024-01-30T06:52:12;11.27;;;6.83;;
12625;SDS011;6378;42.684;23.372;2024-01-30T06:54:37;32.10;;;12.53;;
12625;SDS011;6378;42.684;23.372;2024-01-30T06:57:03;21.43;;;10.70;;
12625;SDS011;6378;42.684;23.372;2024-01-30T06:59:29;17.90;;;9.27;;
12625;SDS011;6378;42.684;23.372;2024-01-30T07:01:54;14.67;;;6.67;;
12625;SDS011;6378;42.684;23.372;2024-01-30T07:04:19;29.40;;;8.30;;
12625;SDS011;6378;42.684;23.372;2024-01-30T07:06:45;11.03;;;7.20;;
12625;SDS011;6378;42.684;23.372;2024-01-30T07:09:11;17.50;;;10.13;;
12625;SDS011;6378;42.684;23.372;2024-01-30T07:11:37;18.10;;;8.97;;
12625;SDS011;6378;42.684;23.372;2024-01-30T07:14:02;14.70;;;6.40;;
12625;SDS011;6378;42.684;23.372;2024-01-30T07:16:31;10.87;;;6.07;;
12625;SDS011;6378;42.684;23.372;2024-01-30T07:18:56;10.10;;;5.63;;
12625;SDS011;6378;42.684;23.372;2024-01-30T07:21:22;17.50;;;6.57;;
12625;SDS011;6378;42.684;23.372;2024-01-30T07:23:52;13.00;;;6.57;;
12625;SDS011;6378;42.684;23.372;2024-01-30T07:26:18;13.30;;;6.97;;
12625;SDS011;6378;42.684;23.372;2024-01-30T07:28:44;7.57;;;5.13;;
12625;SDS011;6378;42.684;23.372;2024-01-30T07:31:09;7.67;;;5.10;;
12625;SDS011;6378;42.684;23.372;2024-01-30T07:33:35;7.37;;;5.10;;
12625;SDS011;6378;42.684;23.372;2024-01-30T07:36:01;8.57;;;4.63;;
12625;SDS011;6378;42.684;23.372;2024-01-30T07:38:26;10.70;;;5.87;;
12625;SDS011;6378;42.684;23.372;2024-01-30T07:40:52;13.23;;;5.60;;
12625;SDS011;6378;42.684;23.372;2024-01-30T07:43:17;14.60;;;6.30;;
12625;SDS011;6378;42.684;23.372;2024-01-30T07:45:44;6.73;;;4.50;;
12625;SDS011;6378;42.684;23.372;2024-01-30T07:48:10;7.63;;;4.40;;
12625;SDS011;6378;42.684;23.372;2024-01-30T07:50:35;13.43;;;7.03;;
12625;SDS011;6378;42.684;23.372;2024-01-30T07:53:01;5.60;;;3.80;;
12625;SDS011;6378;42.684;23.372;2024-01-30T07:55:27;7.40;;;3.97;;
12625;SDS011;6378;42.684;23.372;2024-01-30T07:57:54;17.20;;;5.13;;
12625;SDS011;6378;42.684;23.372;2024-01-30T08:00:20;17.10;;;5.70;;
12625;SDS011;6378;42.684;23.372;2024-01-30T08:02:46;16.80;;;6.17;;
12625;SDS011;6378;42.684;23.372;2024-01-30T08:05:12;9.67;;;4.90;;
12625;SDS011;6378;42.684;23.372;2024-01-30T08:07:40;17.97;;;6.00;;
12625;SDS011;6378;42.684;23.372;2024-01-30T08:10:06;6.00;;;4.20;;
12625;SDS011;6378;42.684;23.372;2024-01-30T08:12:32;19.33;;;5.87;;
12625;SDS011;6378;42.684;23.372;2024-01-30T08:14:58;4.80;;;4.00;;
12625;SDS011;6378;42.684;23.372;2024-01-30T08:17:23;10.03;;;4.60;;
12625;SDS011;6378;42.684;23.372;2024-01-30T08:19:49;6.23;;;4.57;;
12625;SDS011;6378;42.684;23.372;2024-01-30T08:22:14;4.83;;;4.03;;
12625;SDS011;6378;42.684;23.372;2024-01-30T08:24:40;7.60;;;4.33;;
12625;SDS011;6378;42.684;23.372;2024-01-30T08:27:06;9.50;;;4.77;;
12625;SDS011;6378;42.684;23.372;2024-01-30T08:29:34;6.63;;;4.47;;
12625;SDS011;6378;42.684;23.372;2024-01-30T08:32:00;6.03;;;4.27;;
12625;SDS011;6378;42.684;23.372;2024-01-30T08:34:26;8.43;;;4.90;;
12625;SDS011;6378;42.684;23.372;2024-01-30T08:36:52;9.93;;;5.10;;
12625;SDS011;6378;42.684;23.372;2024-01-30T08:39:17;10.83;;;5.87;;
12625;SDS011;6378;42.684;23.372;2024-01-30T08:41:43;10.10;;;5.80;;
12625;SDS011;6378;42.684;23.372;2024-01-30T08:44:08;10.17;;;6.27;;
12625;SDS011;6378;42.684;23.372;2024-01-30T08:46:36;7.73;;;5.90;;
12625;SDS011;6378;42.684;23.372;2024-01-30T08:49:01;11.80;;;7.17;;
12625;SDS011;6378;42.684;23.372;2024-01-30T08:51:28;8.73;;;5.53;;
12625;SDS011;6378;42.684;23.372;2024-01-30T08:53:53;6.43;;;4.80;;
12625;SDS011;6378;42.684;23.372;2024-01-30T08:56:19;7.47;;;5.10;;
12625;SDS011;6378;42.684;23.372;2024-01-30T08:58:44;7.67;;;5.00;;
12625;SDS011;6378;42.684;23.372;2024-01-30T09:01:10;6.47;;;4.73;;
12625;SDS011;6378;42.684;23.372;2024-01-30T09:03:35;6.77;;;4.80;;
12625;SDS011;6378;42.684;23.372;2024-01-30T09:06:07;5.17;;;4.10;;
12625;SDS011;6378;42.684;23.372;2024-01-30T09:08:36;7.33;;;4.27;;
12625;SDS011;6378;42.684;23.372;2024-01-30T09:11:02;8.67;;;4.83;;
12625;SDS011;6378;42.684;23.372;2024-01-30T09:13:35;6.93;;;5.17;;
12625;SDS011;6378;42.684;23.372;2024-01-30T09:16:01;23.97;;;6.40;;
12625;SDS011;6378;42.684;23.372;2024-01-30T09:18:26;6.20;;;4.83;;
12625;SDS011;6378;42.684;23.372;2024-01-30T09:20:51;9.47;;;5.00;;
12625;SDS011;6378;42.684;23.372;2024-01-30T09:23:17;8.23;;;5.07;;
12625;SDS011;6378;42.684;23.372;2024-01-30T09:25:44;8.57;;;4.90;;
12625;SDS011;6378;42.684;23.372;2024-01-30T09:28:10;11.30;;;4.77;;
12625;SDS011;6378;42.684;23.372;2024-01-30T09:30:35;8.27;;;4.33;;
12625;SDS011;6378;42.684;23.372;2024-01-30T09:33:01;3.40;;;2.77;;
12625;SDS011;6378;42.684;23.372;2024-01-30T09:35:26;7.17;;;4.60;;
12625;SDS011;6378;42.684;23.372;2024-01-30T09:37:52;6.03;;;4.33;;
12625;SDS011;6378;42.684;23.372;2024-01-30T09:40:18;5.93;;;4.37;;
12625;SDS011;6378;42.684;23.372;2024-01-30T09:42:46;7.57;;;4.07;;
12625;SDS011;6378;42.684;23.372;2024-01-30T09:45:13;8.67;;;4.23;;
12625;SDS011;6378;42.684;23.372;2024-01-30T09:47:42;7.20;;;4.30;;
12625;SDS011;6378;42.684;23.372;2024-01-30T09:50:09;9.70;;;4.67;;
12625;SDS011;6378;42.684;23.372;2024-01-30T09:52:36;6.95;;;5.18;;
12625;SDS011;6378;42.684;23.372;2024-01-30T09:55:02;6.13;;;3.87;;
12625;SDS011;6378;42.684;23.372;2024-01-30T09:57:28;6.23;;;4.13;;
12625;SDS011;6378;42.684;23.372;2024-01-30T09:59:54;6.00;;;4.10;;
12625;SDS011;6378;42.684;23.372;2024-01-30T10:02:20;8.33;;;5.67;;
12625;SDS011;6378;42.684;23.372;2024-01-30T10:04:50;6.53;;;5.00;;
12625;SDS011;6378;42.684;23.372;2024-01-30T10:07:17;6.97;;;4.43;;
12625;SDS011;6378;42.684;23.372;2024-01-30T10:09:43;7.87;;;4.83;;
12625;SDS011;6378;42.684;23.372;2024-01-30T10:12:09;6.77;;;4.47;;
12625;SDS011;6378;42.684;23.372;2024-01-30T10:14:37;8.87;;;4.70;;
12625;SDS011;6378;42.684;23.372;2024-01-30T10:17:09;5.47;;;4.30;;
12625;SDS011;6378;42.684;23.372;2024-01-30T10:19:38;6.03;;;3.67;;
12625;SDS011;6378;42.684;23.372;2024-01-30T10:22:05;8.07;;;4.77;;
12625;SDS011;6378;42.684;23.372;2024-01-30T10:24:31;5.93;;;4.43;;
12625;SDS011;6378;42.684;23.372;2024-01-30T10:26:58;11.83;;;4.80;;
12625;SDS011;6378;42.684;23.372;2024-01-30T10:29:24;7.37;;;4.80;;
12625;SDS011;6378;42.684;23.372;2024-01-30T10:31:59;6.90;;;4.30;;
12625;SDS011;6378;42.684;23.372;2024-01-30T10:34:29;6.30;;;3.83;;
12625;SDS011;6378;42.684;23.372;2024-01-30T10:36:59;5.87;;;3.50;;
12625;SDS011;6378;42.684;23.372;2024-01-30T10:39:40;8.15;;;6.30;;
12625;SDS011;6378;42.684;23.372;2024-01-30T10:42:09;6.17;;;4.17;;
12625;SDS011;6378;42.684;23.372;2024-01-30T10:44:56;5.50;;;4.40;;
12625;SDS011;6378;42.684;23.372;2024-01-30T10:47:31;5.83;;;2.07;;
12625;SDS011;6378;42.684;23.372;2024-01-30T10:50:00;6.53;;;3.90;;
12625;SDS011;6378;42.684;23.372;2024-01-30T10:52:28;6.77;;;4.17;;
12625;SDS011;6378;42.684;23.372;2024-01-30T10:54:55;6.70;;;4.23;;
12625;SDS011;6378;42.684;23.372;2024-01-30T10:57:27;4.07;;;3.30;;
12625;SDS011;6378;42.684;23.372;2024-01-30T10:59:55;8.33;;;4.93;;
12625;SDS011;6378;42.684;23.372;2024-01-30T11:02:23;8.03;;;4.33;;
12625;SDS011;6378;42.684;23.372;2024-01-30T11:04:50;8.03;;;4.57;;
12625;SDS011;6378;42.684;23.372;2024-01-30T11:07:27;7.80;;;4.13;;
12625;SDS011;6378;42.684;23.372;2024-01-30T11:09:59;4.77;;;3.93;;
12625;SDS011;6378;42.684;23.372;2024-01-30T11:12:29;5.37;;;3.47;;
12625;SDS011;6378;42.684;23.372;2024-01-30T11:15:08;6.70;;;3.97;;
12625;SDS011;6378;42.684;23.372;2024-01-30T11:17:45;8.63;;;4.90;;
12625;SDS011;6378;42.684;23.372;2024-01-30T11:20:29;6.93;;;3.50;;
12625;SDS011;6378;42.684;23.372;2024-01-30T11:23:00;10.30;;;5.07;;
12625;SDS011;6378;42.684;23.372;2024-01-30T11:25:31;5.80;;;4.20;;
12625;SDS011;6378;42.684;23.372;2024-01-30T11:27:57;7.20;;;4.13;;
12625;SDS011;6378;42.684;23.372;2024-01-30T11:30:23;7.30;;;4.17;;
12625;SDS011;6378;42.684;23.372;2024-01-30T11:33:05;5.33;;;4.23;;
12625;SDS011;6378;42.684;23.372;2024-01-30T11:35:34;7.33;;;4.43;;
12625;SDS011;6378;42.684;23.372;2024-01-30T11:38:10;8.97;;;5.03;;
12625;SDS011;6378;42.684;23.372;2024-01-30T11:40:37;4.97;;;3.73;;
12625;SDS011;6378;42.684;23.372;2024-01-30T11:43:03;5.10;;;4.00;;
12625;SDS011;6378;42.684;23.372;2024-01-30T11:45:31;6.53;;;4.00;;
12625;SDS011;6378;42.684;23.372;2024-01-30T11:47:57;8.47;;;4.93;;
12625;SDS011;6378;42.684;23.372;2024-01-30T11:50:25;5.60;;;4.57;;
12625;SDS011;6378;42.684;23.372;2024-01-30T11:52:50;8.97;;;4.50;;
12625;SDS011;6378;42.684;23.372;2024-01-30T11:55:16;14.57;;;5.20;;
12625;SDS011;6378;42.684;23.372;2024-01-30T11:57:42;5.97;;;4.10;;
12625;SDS011;6378;42.684;23.372;2024-01-30T12:00:16;7.27;;;4.67;;
12625;SDS011;6378;42.684;23.372;2024-01-30T12:02:43;8.97;;;5.07;;
12625;SDS011;6378;42.684;23.372;2024-01-30T12:05:09;7.27;;;4.60;;
12625;SDS011;6378;42.684;23.372;2024-01-30T12:07:35;8.37;;;4.67;;
12625;SDS011;6378;42.684;23.372;2024-01-30T12:10:01;6.17;;;4.20;;
12625;SDS011;6378;42.684;23.372;2024-01-30T12:12:28;4.57;;;3.63;;
12625;SDS011;6378;42.684;23.372;2024-01-30T12:14:55;7.73;;;4.50;;
12625;SDS011;6378;42.684;23.372;2024-01-30T12:17:28;5.30;;;3.77;;
12625;SDS011;6378;42.684;23.372;2024-01-30T12:20:05;6.97;;;4.53;;
12625;SDS011;6378;42.684;23.372;2024-01-30T12:22:38;5.13;;;4.23;;
12625;SDS011;6378;42.684;23.372;2024-01-30T12:25:07;7.60;;;3.67;;
12625;SDS011;6378;42.684;23.372;2024-01-30T12:27:33;5.73;;;4.23;;
12625;SDS011;6378;42.684;23.372;2024-01-30T12:29:59;6.97;;;4.40;;
12625;SDS011;6378;42.684;23.372;2024-01-30T12:32:25;7.27;;;4.60;;
12625;SDS011;6378;42.684;23.372;2024-01-30T12:34:54;5.90;;;4.70;;
12625;SDS011;6378;42.684;23.372;2024-01-30T12:37:20;6.67;;;4.10;;
12625;SDS011;6378;42.684;23.372;2024-01-30T12:39:48;6.77;;;4.30;;
12625;SDS011;6378;42.684;23.372;2024-01-30T12:42:13;6.53;;;4.10;;
12625;SDS011;6378;42.684;23.372;2024-01-30T12:44:40;5.43;;;3.80;;
12625;SDS011;6378;42.684;23.372;2024-01-30T12:47:08;8.33;;;4.30;;
12625;SDS011;6378;42.684;23.372;2024-01-30T12:49:34;5.20;;;4.20;;
12625;SDS011;6378;42.684;23.372;2024-01-30T12:52:00;6.93;;;4.90;;
12625;SDS011;6378;42.684;23.372;2024-01-30T12:54:26;5.57;;;4.30;;
12625;SDS011;6378;42.684;23.372;2024-01-30T12:56:51;9.57;;;4.90;;
12625;SDS011;6378;42.684;23.372;2024-01-30T12:59:17;7.23;;;5.10;;
12625;SDS011;6378;42.684;23.372;2024-01-30T13:01:42;5.63;;;4.57;;
12625;SDS011;6378;42.684;23.372;2024-01-30T13:04:08;7.03;;;5.03;;
12625;SDS011;6378;42.684;23.372;2024-01-30T13:06:33;8.03;;;6.00;;
12625;SDS011;6378;42.684;23.372;2024-01-30T13:08:59;5.83;;;4.43;;
12625;SDS011;6378;42.684;23.372;2024-01-30T13:11:24;9.30;;;6.37;;
12625;SDS011;6378;42.684;23.372;2024-01-30T13:13:51;7.83;;;5.77;;
12625;SDS011;6378;42.684;23.372;2024-01-30T13:16:16;8.90;;;4.43;;
12625;SDS011;6378;42.684;23.372;2024-01-30T13:18:43;11.90;;;6.03;;
12625;SDS011;6378;42.684;23.372;2024-01-30T13:21:09;9.77;;;5.73;;
12625;SDS011;6378;42.684;23.372;2024-01-30T13:23:35;8.03;;;5.13;;
12625;SDS011;6378;42.684;23.372;2024-01-30T13:26:00;9.20;;;5.83;;
12625;SDS011;6378;42.684;23.372;2024-01-30T13:28:26;8.53;;;5.27;;
12625;SDS011;6378;42.684;23.372;2024-01-30T13:30:52;7.00;;;5.00;;
12625;SDS011;6378;42.684;23.372;2024-01-30T13:33:17;9.83;;;4.47;;
12625;SDS011;6378;42.684;23.372;2024-01-30T13:35:43;9.13;;;5.97;;
12625;SDS011;6378;42.684;23.372;2024-01-30T13:38:08;7.63;;;5.00;;
12625;SDS011;6378;42.684;23.372;2024-01-30T13:40:34;7.23;;;5.03;;
12625;SDS011;6378;42.684;23.372;2024-01-30T13:42:59;6.43;;;4.97;;
12625;SDS011;6378;42.684;23.372;2024-01-30T13:45:25;5.47;;;3.87;;
12625;SDS011;6378;42.684;23.372;2024-01-30T13:47:50;8.63;;;5.40;;
12625;SDS011;6378;42.684;23.372;2024-01-30T13:50:16;6.27;;;4.80;;
12625;SDS011;6378;42.684;23.372;2024-01-30T13:52:42;9.70;;;4.40;;
12625;SDS011;6378;42.684;23.372;2024-01-30T13:55:08;6.60;;;4.60;;
12625;SDS011;6378;42.684;23.372;2024-01-30T13:57:35;8.60;;;5.23;;
12625;SDS011;6378;42.684;23.372;2024-01-30T14:00:02;8.23;;;5.57;;
12625;SDS011;6378;42.684;23.372;2024-01-30T14:02:31;8.97;;;5.10;;
12625;SDS011;6378;42.684;23.372;2024-01-30T14:04:56;8.37;;;5.33;;
12625;SDS011;6378;42.684;23.372;2024-01-30T14:07:22;10.40;;;6.20;;
12625;SDS011;6378;42.684;23.372;2024-01-30T14:09:48;18.10;;;7.50;;
12625;SDS011;6378;42.684;23.372;2024-01-30T14:12:14;10.03;;;6.70;;
12625;SDS011;6378;42.684;23.372;2024-01-30T14:14:39;10.13;;;6.87;;
12625;SDS011;6378;42.684;23.372;2024-01-30T14:17:05;9.80;;;6.43;;
12625;SDS011;6378;42.684;23.372;2024-01-30T14:19:32;16.27;;;7.13;;
12625;SDS011;6378;42.684;23.372;2024-01-30T14:21:58;7.80;;;5.57;;
12625;SDS011;6378;42.684;23.372;2024-01-30T14:24:24;9.23;;;5.83;;
12625;SDS011;6378;42.684;23.372;2024-01-30T14:26:49;12.43;;;6.63;;
12625;SDS011;6378;42.684;23.372;2024-01-30T14:29:15;10.47;;;6.17;;
12625;SDS011;6378;42.684;23.372;2024-01-30T14:31:41;11.53;;;6.73;;
12625;SDS011;6378;42.684;23.372;2024-01-30T14:34:06;11.60;;;6.87;;
12625;SDS011;6378;42.684;23.372;2024-01-30T14:36:33;7.80;;;4.80;;
12625;SDS011;6378;42.684;23.372;2024-01-30T14:38:59;8.43;;;6.10;;